Time;durP1;ratioP1;P1;durP2;ratioP2;P2;SDS_P1;SDS_P2;PMS_P1;PMS_P2;Temp;Humidity;BMP_temperature;BMP_pressure;BME280_temperature;BME280_humidity;BME280_pressure;Samples;Min_cycle;Max_cycle;Signal;HPM_P1;HPM_P2
2022/03/27 00:00:16;;;;;;;3.13;2.83;;;6.70;44.40;6.00;99441.00;;;;5019160;28;20276;-75
2022/03/27 00:02:43;;;;;;;2.07;1.97;;;6.60;44.40;5.90;99449.00;;;;5036527;28;20221;-75
2022/03/27 00:05:12;;;;;;;2.60;2.50;;;6.60;44.20;6.00;99441.00;;;;5036595;28;20288;-75
2022/03/27 00:07:39;;;;;;;3.67;2.13;;;6.60;44.80;5.90;99448.00;;;;5036748;28;20299;-76
2022/03/27 00:10:07;;;;;;;9.20;2.73;;;6.60;45.10;5.80;99438.00;;;;5036577;28;20217;-75
2022/03/27 00:12:34;;;;;;;2.03;1.93;;;6.50;45.00;5.80;99438.00;;;;5036450;28;20225;-75
2022/03/27 00:15:01;;;;;;;2.97;2.73;;;6.50;46.00;5.80;99437.00;;;;5036638;28;20208;-75
2022/03/27 00:17:32;;;;;;;1.87;1.77;;;6.40;44.80;5.70;99434.00;;;;5036644;28;20226;-76
2022/03/27 00:20:00;;;;;;;3.93;3.63;;;6.40;45.50;5.70;99435.00;;;;5036555;28;20209;-77
2022/03/27 00:22:27;;;;;;;3.97;2.47;;;6.30;45.20;5.70;99433.00;;;;5036746;28;20630;-76
2022/03/27 00:24:58;;;;;;;1.93;1.83;;;6.30;45.50;5.50;99422.00;;;;5018877;28;20323;-75
2022/03/27 00:27:24;;;;;;;2.43;2.23;;;6.20;45.10;5.40;99439.00;;;;5019100;28;20225;-75
2022/03/27 00:29:54;;;;;;;2.87;2.33;;;6.10;45.30;5.40;99437.00;;;;5036810;28;20212;-75
2022/03/27 00:32:22;;;;;;;19.20;2.40;;;6.10;46.00;5.40;99422.00;;;;5036726;28;20275;-75
2022/03/27 00:34:50;;;;;;;4.67;2.73;;;6.10;46.20;5.30;99433.00;;;;5041779;28;20227;-75
2022/03/27 00:37:16;;;;;;;2.40;2.17;;;6.10;46.20;5.30;99441.00;;;;5038448;28;20200;-76
2022/03/27 00:39:43;;;;;;;3.17;2.27;;;6.00;46.20;5.30;99434.00;;;;5038300;28;20197;-74
2022/03/27 00:42:11;;;;;;;3.03;2.63;;;6.10;47.30;5.30;99438.00;;;;5036667;28;20216;-74
2022/03/27 00:44:39;;;;;;;2.47;2.23;;;6.00;46.50;5.40;99429.00;;;;5036075;28;20307;-77
2022/03/27 00:47:06;;;;;;;2.33;2.10;;;6.00;46.40;5.40;99433.00;;;;5018727;28;20209;-75
2022/03/27 00:49:33;;;;;;;3.93;2.47;;;6.00;46.30;5.20;99435.00;;;;5018814;28;20205;-75
2022/03/27 00:52:00;;;;;;;3.83;3.50;;;5.90;45.60;5.20;99428.00;;;;5035935;28;20228;-75
2022/03/27 00:54:29;;;;;;;3.47;2.50;;;5.90;45.90;5.10;99433.00;;;;5035798;28;20643;-75
2022/03/27 00:56:55;;;;;;;3.27;2.30;;;5.80;46.00;5.00;99417.00;;;;5018717;28;20719;-75
2022/03/27 00:59:22;;;;;;;2.93;2.67;;;5.70;45.90;5.10;99396.00;;;;5018483;28;20220;-74
2022/03/27 01:01:49;;;;;;;2.27;2.07;;;5.70;46.60;5.00;99425.00;;;;5018471;28;20226;-74
2022/03/27 01:04:16;;;;;;;2.30;2.20;;;5.70;46.50;5.00;99441.00;;;;5018306;28;20274;-75
2022/03/27 01:06:44;;;;;;;2.83;2.63;;;5.60;46.60;4.90;99428.00;;;;5018426;28;20196;-75
2022/03/27 01:12:13;;;;;;;3.43;2.27;;;5.60;47.00;5.00;99369.00;;;;5033981;28;20722;-76
2022/03/27 01:14:44;;;;;;;2.53;2.30;;;5.60;47.70;4.90;99422.00;;;;5018110;28;20293;-75
2022/03/27 01:17:16;;;;;;;2.67;2.47;;;5.60;47.90;5.00;99417.00;;;;5035412;28;20214;-75
2022/03/27 01:19:46;;;;;;;1.43;1.43;;;5.60;48.10;5.00;99435.00;;;;5018583;28;20231;-75
2022/03/27 01:22:14;;;;;;;3.33;3.00;;;5.60;47.40;4.80;99413.00;;;;5035585;28;20215;-74
2022/03/27 01:24:41;;;;;;;1.80;1.70;;;5.60;47.60;4.80;99418.00;;;;5035519;28;20221;-75
2022/03/27 01:27:08;;;;;;;2.33;2.17;;;5.50;47.60;4.70;99416.00;;;;5035442;28;20197;-75
2022/03/27 01:29:35;;;;;;;2.67;2.50;;;5.40;47.60;4.60;99418.00;;;;5035497;28;20229;-75
2022/03/27 01:32:03;;;;;;;1.90;1.80;;;5.40;47.40;4.60;99397.00;;;;5035321;28;20284;-75
2022/03/27 01:34:30;;;;;;;4.70;2.87;;;5.30;48.00;4.50;99407.00;;;;5035178;28;20555;-74
2022/03/27 01:37:01;;;;;;;2.13;1.93;;;5.30;48.30;4.60;99405.00;;;;5017928;28;20292;-74
2022/03/27 01:39:28;;;;;;;2.53;2.43;;;5.30;49.20;4.60;99400.00;;;;5035242;28;20351;-76
2022/03/27 01:41:55;;;;;;;3.07;2.87;;;5.30;48.50;4.60;99400.00;;;;5035139;28;20654;-75
2022/03/27 01:44:21;;;;;;;2.80;2.20;;;5.30;48.60;4.70;99407.00;;;;5035213;28;20229;-75
2022/03/27 01:46:48;;;;;;;2.80;2.20;;;5.30;48.40;4.70;99406.00;;;;5035160;28;20208;-74
2022/03/27 01:49:15;;;;;;;1.83;1.73;;;5.30;48.40;4.60;99399.00;;;;5017618;28;20279;-75
2022/03/27 01:51:43;;;;;;;2.43;2.33;;;5.30;49.50;4.60;99357.00;;;;5035088;28;20197;-75
2022/03/27 01:54:10;;;;;;;2.00;1.90;;;5.30;49.50;4.70;99390.00;;;;5034896;28;20235;-75
2022/03/27 01:56:38;;;;;;;1.10;1.10;;;5.30;48.90;4.60;99394.00;;;;5035213;28;20201;-75
2022/03/27 01:59:05;;;;;;;1.83;1.73;;;5.20;49.60;4.50;99388.00;;;;5034905;28;20205;-75
2022/03/27 02:01:32;;;;;;;2.63;2.43;;;5.30;49.90;4.60;99394.00;;;;5017502;28;20216;-75
2022/03/27 02:03:58;;;;;;;1.97;1.87;;;5.30;49.80;4.60;99391.00;;;;5034651;28;20731;-75
2022/03/27 02:06:25;;;;;;;2.73;2.53;;;5.20;48.90;4.50;99392.00;;;;5034836;28;20964;-75
2022/03/27 02:08:53;;;;;;;3.70;3.20;;;5.20;48.80;4.50;99389.00;;;;5034896;28;20250;-75
2022/03/27 02:11:20;;;;;;;3.10;2.80;;;5.10;49.10;4.40;99389.00;;;;5017932;28;20212;-75
2022/03/27 02:13:47;;;;;;;1.87;1.77;;;5.10;49.00;4.20;99382.00;;;;5034760;28;20231;-75
2022/03/27 02:16:14;;;;;;;2.27;2.17;;;5.00;48.90;4.20;99386.00;;;;5017485;28;20303;-76
2022/03/27 02:18:42;;;;;;;1.63;1.57;;;4.90;49.20;4.30;99389.00;;;;5033839;28;20625;-75
2022/03/27 02:21:09;;;;;;;4.10;2.30;;;4.90;49.60;4.20;99386.00;;;;5034724;28;20205;-75
2022/03/27 02:23:37;;;;;;;2.03;1.93;;;5.00;49.50;4.30;99389.00;;;;5034586;28;20223;-75
2022/03/27 02:26:05;;;;;;;1.70;1.60;;;4.90;49.70;4.10;99387.00;;;;5017259;28;20240;-75
2022/03/27 02:28:34;;;;;;;5.47;1.73;;;4.90;50.10;4.20;99389.00;;;;5034695;28;20197;-74
2022/03/27 02:31:02;;;;;;;2.33;2.13;;;4.90;50.10;4.30;99381.00;;;;5034850;28;20228;-76
2022/03/27 02:33:29;;;;;;;1.43;1.40;;;4.90;50.10;4.20;99393.00;;;;5034494;28;20199;-74
2022/03/27 02:35:56;;;;;;;2.43;2.23;;;4.90;50.10;4.30;99396.00;;;;5034467;28;20209;-76
2022/03/27 02:38:23;;;;;;;1.90;1.80;;;4.90;49.80;4.20;99391.00;;;;5034474;28;20295;-75
2022/03/27 02:40:50;;;;;;;4.33;2.90;;;4.90;50.30;4.10;99399.00;;;;5034596;28;20189;-75
2022/03/27 02:43:19;;;;;;;4.37;2.90;;;4.80;50.80;4.00;99396.00;;;;5034331;28;20637;-75
2022/03/27 02:45:47;;;;;;;2.57;2.27;;;4.70;50.40;3.90;99396.00;;;;5034269;28;20547;-75
2022/03/27 02:48:15;;;;;;;2.30;2.20;;;4.70;50.70;3.90;99397.00;;;;5017051;28;20667;-75
2022/03/27 02:50:43;;;;;;;3.50;2.73;;;4.70;50.70;3.90;99389.00;;;;5034186;28;20224;-75
2022/03/27 02:53:11;;;;;;;3.00;2.33;;;4.60;50.80;3.90;99393.00;;;;5034586;28;20193;-75
2022/03/27 02:55:38;;;;;;;3.13;2.83;;;4.60;50.70;3.90;99387.00;;;;5034531;28;20205;-75
2022/03/27 02:58:05;;;;;;;4.30;3.37;;;4.60;50.50;3.80;99395.00;;;;5034913;28;20246;-74
2022/03/27 03:00:32;;;;;;;2.40;2.20;;;4.60;50.80;3.80;99389.00;;;;5034640;28;20228;-75
2022/03/27 03:02:58;;;;;;;2.73;2.50;;;4.50;51.00;3.90;99388.00;;;;5019399;28;20220;-75
2022/03/27 03:05:26;;;;;;;3.33;2.83;;;4.60;50.80;3.90;99396.00;;;;5046319;28;20220;-76
2022/03/27 03:07:54;;;;;;;1.73;1.63;;;4.60;50.60;3.70;99393.00;;;;5028906;28;20216;-75
2022/03/27 03:10:23;;;;;;;2.47;2.30;;;4.60;50.70;3.90;99390.00;;;;5046398;28;20216;-75
2022/03/27 03:12:50;;;;;;;1.83;1.73;;;4.60;50.30;3.80;99377.00;;;;5027495;28;20279;-75
2022/03/27 03:15:17;;;;;;;1.67;1.57;;;4.50;50.50;3.90;99382.00;;;;5034446;28;20254;-75
2022/03/27 03:17:46;;;;;;;1.63;1.57;;;4.50;51.20;3.80;99385.00;;;;5017121;28;20215;-74
2022/03/27 03:20:16;;;;;;;3.97;3.53;;;4.50;50.80;3.80;99391.00;;;;5035271;28;20694;-75
2022/03/27 03:22:44;;;;;;;3.33;2.53;;;4.50;52.30;3.70;99385.00;;;;5002154;28;20219;-76
2022/03/27 03:25:11;;;;;;;2.90;1.87;;;4.40;51.30;3.60;99369.00;;;;5017815;28;20323;-75
2022/03/27 03:27:38;;;;;;;2.27;2.17;;;4.30;51.30;3.60;99395.00;;;;5018273;28;20258;-76
2022/03/27 03:30:06;;;;;;;2.40;2.20;;;4.30;51.50;3.70;99378.00;;;;5019764;28;20664;-75
2022/03/27 03:32:36;;;;;;;2.17;1.97;;;4.30;51.60;3.70;99385.00;;;;5036482;28;20616;-77
2022/03/27 03:35:04;;;;;;;5.00;3.10;;;4.50;51.00;3.70;99357.00;;;;5049633;28;20220;-75
2022/03/27 03:37:31;;;;;;;2.40;2.13;;;4.40;51.20;3.70;99388.00;;;;5049465;28;20224;-76
2022/03/27 03:40:02;;;;;;;10.47;2.93;;;4.30;51.50;3.60;99398.00;;;;5048761;28;20671;-75
2022/03/27 03:42:29;;;;;;;11.17;2.43;;;4.30;51.30;3.50;99390.00;;;;5040004;28;20201;-76
2022/03/27 03:44:56;;;;;;;4.43;2.00;;;4.30;51.00;3.40;99391.00;;;;5041976;28;20652;-75
2022/03/27 03:47:22;;;;;;;8.97;3.47;;;4.20;50.60;3.30;99393.00;;;;5037592;28;20192;-75
2022/03/27 03:49:49;;;;;;;3.50;2.40;;;4.10;51.50;3.20;99397.00;;;;5037372;28;20220;-75
2022/03/27 03:52:15;;;;;;;1.83;1.73;;;4.10;52.20;3.40;99330.00;;;;5042223;28;20201;-75
2022/03/27 03:54:42;;;;;;;1.37;1.37;;;4.10;52.10;3.40;99400.00;;;;5022604;28;20224;-76
2022/03/27 03:57:09;;;;;;;3.70;2.43;;;4.10;51.90;3.40;99397.00;;;;5036886;28;20236;-75
2022/03/27 03:59:38;;;;;;;9.03;3.43;;;4.10;52.20;3.40;99398.00;;;;5037120;28;20593;-75
2022/03/27 04:02:08;;;;;;;4.80;2.63;;;4.10;52.40;3.40;99393.00;;;;5036649;28;20653;-76
2022/03/27 04:04:35;;;;;;;4.37;2.20;;;4.10;52.70;3.40;99347.00;;;;5036481;28;20227;-75
2022/03/27 04:07:05;;;;;;;2.17;1.87;;;4.10;52.30;3.30;99393.00;;;;5036937;28;20255;-76
2022/03/27 04:09:33;;;;;;;4.60;2.40;;;4.10;52.10;3.30;99390.00;;;;5019451;28;20536;-76
2022/03/27 04:12:00;;;;;;;3.80;3.07;;;4.10;52.70;3.40;99402.00;;;;5036685;28;20205;-75
2022/03/27 04:14:29;;;;;;;4.00;2.80;;;4.10;52.40;3.20;99385.00;;;;5036695;28;20221;-75
2022/03/27 04:16:56;;;;;;;2.90;2.70;;;4.00;51.60;3.20;99394.00;;;;5036668;28;20196;-75
2022/03/27 04:19:23;;;;;;;3.63;3.30;;;4.00;51.60;3.30;99394.00;;;;5019433;28;20288;-74
2022/03/27 04:21:49;;;;;;;3.70;3.00;;;4.00;52.30;3.30;99379.00;;;;5036892;28;20219;-75
2022/03/27 04:24:16;;;;;;;5.80;2.70;;;4.00;52.50;3.40;99356.00;;;;5037096;28;20216;-75
2022/03/27 04:26:42;;;;;;;1.57;1.57;;;4.10;52.70;3.30;99383.00;;;;5037266;28;20302;-76
2022/03/27 04:29:10;;;;;;;5.53;2.43;;;4.10;52.00;3.30;99385.00;;;;5024183;28;20694;-77
2022/03/27 04:31:38;;;;;;;5.50;2.30;;;4.00;52.00;3.10;99391.00;;;;5036998;28;20224;-75
2022/03/27 04:34:05;;;;;;;3.23;1.87;;;3.90;52.10;2.90;99389.00;;;;5019535;28;20493;-75
2022/03/27 04:36:32;;;;;;;3.13;2.83;;;3.80;52.20;3.10;99396.00;;;;5019302;28;20229;-74
2022/03/27 04:38:58;;;;;;;1.30;1.30;;;3.80;52.20;3.00;99386.00;;;;5037230;28;20284;-76
2022/03/27 04:41:25;;;;;;;2.63;2.03;;;3.70;52.60;3.00;99386.00;;;;5019530;28;20239;-77
2022/03/27 04:43:52;;;;;;;2.80;2.60;;;3.80;52.50;3.20;99384.00;;;;5037102;28;20304;-76
2022/03/27 04:46:19;;;;;;;1.50;1.47;;;3.80;53.00;3.20;99398.00;;;;5019852;28;20281;-77
2022/03/27 04:48:46;;;;;;;3.10;2.87;;;3.80;53.10;3.00;99400.00;;;;5036901;28;20678;-76
2022/03/27 04:51:16;;;;;;;1.73;1.63;;;3.90;53.40;3.10;99401.00;;;;5036186;28;20251;-74
2022/03/27 04:53:43;;;;;;;1.90;1.80;;;3.80;54.20;3.00;99402.00;;;;5019172;28;20266;-76
2022/03/27 04:56:10;;;;;;;4.43;4.00;;;3.80;54.50;3.10;99400.00;;;;5018823;28;20294;-76
2022/03/27 04:58:37;;;;;;;2.77;2.57;;;3.80;54.30;3.00;99398.00;;;;5036073;28;20211;-75
2022/03/27 05:01:03;;;;;;;2.77;1.83;;;3.70;53.30;2.90;99405.00;;;;5035828;28;20240;-75
2022/03/27 05:03:30;;;;;;;9.03;2.60;;;3.70;53.00;2.90;99393.00;;;;5035863;28;20232;-75
2022/03/27 05:05:57;;;;;;;1.10;1.10;;;3.70;53.00;2.90;99404.00;;;;5035747;28;20208;-75
2022/03/27 05:08:24;;;;;;;2.83;2.63;;;3.70;52.80;2.70;99393.00;;;;5035773;28;20204;-75
2022/03/27 05:10:50;;;;;;;2.93;2.73;;;3.50;52.70;2.70;99396.00;;;;5018191;28;20200;-75
2022/03/27 05:13:18;;;;;;;2.47;2.27;;;3.50;53.50;2.80;99408.00;;;;5035958;28;20208;-75
2022/03/27 05:15:48;;;;;;;2.07;1.93;;;3.60;54.10;2.70;99403.00;;;;5035788;28;20203;-74
2022/03/27 05:18:15;;;;;;;1.53;1.43;;;3.50;53.70;2.80;99403.00;;;;5035902;28;20258;-75
2022/03/27 05:20:42;;;;;;;1.73;1.63;;;3.50;53.80;2.80;99369.00;;;;5018153;28;20196;-75
2022/03/27 05:23:12;;;;;;;3.07;2.57;;;3.50;54.10;2.70;99392.00;;;;5018145;28;20214;-75
2022/03/27 05:25:48;;;;;;;2.23;2.13;;;3.50;54.10;2.60;99399.00;;;;5035449;28;20213;-75
2022/03/27 05:28:15;;;;;;;6.47;3.07;;;3.40;54.40;2.80;99412.00;;;;5035449;28;20292;-75
2022/03/27 05:30:43;;;;;;;3.43;2.23;;;3.50;54.70;2.90;99394.00;;;;5035290;28;20212;-75
2022/03/27 05:33:10;;;;;;;2.50;2.23;;;3.50;54.10;2.90;99407.00;;;;5035491;28;20195;-75
2022/03/27 05:35:37;;;;;;;2.03;1.73;;;3.50;54.20;2.90;99373.00;;;;5017946;28;20299;-75
2022/03/27 05:38:07;;;;;;;3.83;2.43;;;3.60;54.60;2.80;99406.00;;;;5017820;28;20207;-75
2022/03/27 05:40:38;;;;;;;2.37;2.10;;;3.60;54.00;2.70;99407.00;;;;5017805;28;20219;-75
2022/03/27 05:43:05;;;;;;;2.47;1.90;;;3.50;53.70;2.80;99408.00;;;;5035333;28;20743;-75
2022/03/27 05:45:32;;;;;;;3.20;2.90;;;3.50;54.10;2.90;99409.00;;;;5018246;28;20501;-75
2022/03/27 05:47:59;;;;;;;0.97;0.97;;;3.50;54.20;2.90;99407.00;;;;5034906;28;20230;-75
2022/03/27 05:50:28;;;;;;;1.57;1.47;;;3.60;54.00;3.00;99379.00;;;;5017611;28;20214;-75
2022/03/27 05:52:57;;;;;;;3.87;3.57;;;3.60;54.90;3.00;99419.00;;;;5033880;28;20230;-76
2022/03/27 05:55:25;;;;;;;1.70;1.60;;;3.70;54.10;3.00;99420.00;;;;5034849;28;20205;-75
2022/03/27 05:57:52;;;;;;;1.53;1.47;;;3.70;53.90;3.00;99423.00;;;;5034853;28;20278;-74
2022/03/27 06:00:20;;;;;;;4.93;2.37;;;3.70;54.40;3.10;99423.00;;;;5034976;28;20197;-75
2022/03/27 06:02:48;;;;;;;2.13;2.03;;;3.70;54.30;3.00;99431.00;;;;5017717;28;20264;-75
2022/03/27 06:05:17;;;;;;;4.17;2.57;;;3.80;54.10;3.00;99420.00;;;;5034632;28;20225;-75
2022/03/27 06:07:46;;;;;;;4.07;2.90;;;3.80;55.20;3.10;99433.00;;;;5017164;28;20667;-75
2022/03/27 06:10:20;;;;;;;2.93;2.70;;;3.80;54.30;3.00;99393.00;;;;5035075;28;20223;-75
2022/03/27 06:12:46;;;;;;;2.00;1.90;;;3.80;54.60;3.30;99430.00;;;;5017846;28;20285;-76
2022/03/27 06:15:15;;;;;;;17.13;3.83;;;3.90;54.80;3.20;99426.00;;;;5035039;28;20263;-74
2022/03/27 06:17:44;;;;;;;21.97;2.80;;;3.90;54.00;3.20;99419.00;;;;5034578;28;20692;-75
2022/03/27 06:20:13;;;;;;;2.03;1.93;;;3.90;53.80;3.00;99404.00;;;;5034680;28;20204;-75
2022/03/27 06:22:40;;;;;;;2.40;2.20;;;3.90;54.50;3.20;99428.00;;;;5017157;28;20330;-75
2022/03/27 06:25:09;;;;;;;1.50;1.47;;;3.90;54.90;3.20;99430.00;;;;5016850;28;20323;-75
2022/03/27 06:27:37;;;;;;;3.13;2.87;;;4.00;54.50;3.20;99436.00;;;;5034374;28;20317;-75
2022/03/27 06:30:05;;;;;;;2.73;2.53;;;4.00;54.50;3.30;99438.00;;;;5016787;28;20214;-75
2022/03/27 06:32:33;;;;;;;3.40;3.13;;;4.00;55.60;3.40;99411.00;;;;5016989;28;20250;-75
2022/03/27 06:35:00;;;;;;;3.30;3.07;;;4.10;55.20;3.50;99431.00;;;;5034320;28;20284;-75
2022/03/27 06:37:28;;;;;;;2.40;2.20;;;4.20;54.90;3.60;99437.00;;;;5034241;28;20263;-75
2022/03/27 06:39:57;;;;;;;3.97;2.20;;;4.20;54.80;3.70;99433.00;;;;5017261;28;20212;-75
2022/03/27 06:42:26;;;;;;;2.43;1.73;;;4.30;54.80;3.80;99436.00;;;;5016720;28;20315;-75
2022/03/27 06:44:54;;;;;;;2.40;2.20;;;4.50;55.00;3.90;99436.00;;;;5034177;28;20225;-74
2022/03/27 06:47:23;;;;;;;2.50;1.70;;;4.60;54.40;4.10;99432.00;;;;5034068;28;20295;-74
2022/03/27 06:49:51;;;;;;;1.83;1.73;;;4.70;54.00;4.20;99394.00;;;;5034165;28;20654;-74
2022/03/27 06:52:18;;;;;;;2.33;2.17;;;4.70;54.10;4.20;99427.00;;;;5033992;28;20256;-74
2022/03/27 06:54:46;;;;;;;2.37;2.17;;;4.80;53.70;4.20;99431.00;;;;5016665;28;20208;-74
2022/03/27 06:57:14;;;;;;;1.90;1.80;;;4.90;54.00;4.40;99426.00;;;;5033793;28;20275;-75
2022/03/27 07:05:14;;;;;;;1.80;1.70;;;5.10;55.00;4.50;99431.00;;;;5016414;28;20563;-75
2022/03/27 07:07:42;;;;;;;2.77;2.57;;;5.20;54.30;4.60;99433.00;;;;5016576;28;20286;-75
2022/03/27 07:10:10;;;;;;;1.83;1.73;;;5.40;54.10;4.80;99436.00;;;;5016603;28;20295;-75
2022/03/27 07:12:37;;;;;;;2.47;2.13;;;5.50;53.60;5.00;99436.00;;;;5033734;28;20243;-75
2022/03/27 07:15:04;;;;;;;1.80;1.67;;;5.60;53.20;5.10;99436.00;;;;5033694;28;20228;-75
2022/03/27 07:17:31;;;;;;;1.73;1.63;;;5.80;52.70;5.20;99440.00;;;;5033913;28;20272;-75
2022/03/27 07:19:57;;;;;;;3.53;2.77;;;5.90;52.80;5.40;99447.00;;;;5033704;28;20197;-75
2022/03/27 07:22:25;;;;;;;7.93;2.17;;;6.00;52.50;5.60;99439.00;;;;5016528;28;20200;-75
2022/03/27 07:24:52;;;;;;;3.30;3.10;;;6.20;52.40;5.70;99443.00;;;;5033581;28;20221;-75
2022/03/27 07:27:18;;;;;;;1.40;1.33;;;6.40;52.30;5.90;99449.00;;;;5016411;28;20197;-76
2022/03/27 07:29:45;;;;;;;3.20;2.40;;;6.50;51.90;6.00;99440.00;;;;5033544;28;20663;-75
2022/03/27 07:32:12;;;;;;;1.33;1.33;;;6.70;51.40;6.20;99445.00;;;;5033613;28;20206;-75
2022/03/27 07:34:40;;;;;;;2.13;2.00;;;6.80;50.70;6.40;99450.00;;;;5016350;28;20291;-76
2022/03/27 07:37:09;;;;;;;2.47;2.27;;;7.00;50.10;6.50;99457.00;;;;5016441;28;20591;-75
2022/03/27 07:39:37;;;;;;;2.27;2.17;;;7.20;49.80;6.80;99462.00;;;;5033598;28;20208;-74
2022/03/27 07:42:04;;;;;;;4.80;3.47;;;7.30;49.50;6.90;99456.00;;;;5016058;28;20200;-75
2022/03/27 07:44:32;;;;;;;3.80;3.43;;;7.50;49.20;7.00;99459.00;;;;5033354;28;20249;-75
2022/03/27 07:46:59;;;;;;;6.80;2.80;;;7.60;48.70;7.20;99460.00;;;;5033609;28;20216;-75
2022/03/27 07:49:26;;;;;;;4.07;2.43;;;7.80;48.50;7.30;99451.00;;;;5033436;28;20675;-74
2022/03/27 07:51:53;;;;;;;7.23;4.53;;;7.90;48.10;7.50;99436.00;;;;5033816;28;20616;-75
2022/03/27 07:54:20;;;;;;;1.50;1.40;;;8.10;48.00;7.60;99454.00;;;;5016415;28;20259;-76
2022/03/27 07:56:47;;;;;;;2.50;2.33;;;8.20;48.30;7.70;99457.00;;;;5038533;28;20280;-75
2022/03/27 07:59:14;;;;;;;2.90;2.70;;;8.40;48.30;7.90;99459.00;;;;5036170;28;20675;-75
2022/03/27 08:01:40;;;;;;;3.70;2.87;;;8.50;48.50;8.00;99456.00;;;;5036722;28;20262;-75
2022/03/27 08:04:07;;;;;;;2.47;2.27;;;8.60;48.60;8.10;99454.00;;;;5033912;28;20228;-75
2022/03/27 08:06:36;;;;;;;0.90;0.90;;;8.70;48.20;8.30;99459.00;;;;5033372;28;20197;-75
2022/03/27 08:09:04;;;;;;;1.73;1.67;;;8.90;48.10;8.40;99454.00;;;;5032987;28;20307;-75
2022/03/27 08:11:31;;;;;;;4.57;2.60;;;9.00;47.80;8.50;99454.00;;;;5033033;28;20266;-75
2022/03/27 08:14:00;;;;;;;3.37;1.80;;;9.10;48.40;8.70;99454.00;;;;5033052;28;20216;-76
2022/03/27 08:16:27;;;;;;;1.23;1.23;;;9.30;48.20;8.80;99455.00;;;;5035427;28;20581;-75
2022/03/27 08:18:53;;;;;;;1.23;1.23;;;9.40;47.90;8.90;99453.00;;;;5036448;28;20307;-75
2022/03/27 08:21:20;;;;;;;4.30;2.70;;;9.60;47.50;9.10;99459.00;;;;5036612;28;20346;-76
2022/03/27 08:23:46;;;;;;;2.90;2.63;;;9.70;47.40;9.20;99471.00;;;;5036486;28;20248;-75
2022/03/27 08:29:02;;;;;;;2.47;2.27;;;9.90;46.90;9.60;99452.00;;;;5036279;28;20236;-75
2022/03/27 08:31:30;;;;;;;2.07;1.97;;;10.10;46.80;9.60;99468.00;;;;5036401;28;20228;-76
2022/03/27 08:33:57;;;;;;;5.37;2.47;;;10.20;46.70;9.80;99461.00;;;;5036144;28;20810;-75
2022/03/27 08:36:24;;;;;;;2.47;2.13;;;10.40;46.30;9.90;99459.00;;;;5036262;28;20196;-75
2022/03/27 08:38:50;;;;;;;4.23;2.47;;;10.40;45.90;10.00;99441.00;;;;5036057;28;20321;-75
2022/03/27 08:41:17;;;;;;;2.07;1.93;;;10.60;45.80;10.20;99459.00;;;;5036159;28;20674;-75
2022/03/27 08:43:47;;;;;;;2.10;1.87;;;10.80;45.60;10.30;99459.00;;;;5035828;28;20223;-75
2022/03/27 08:46:16;;;;;;;2.43;2.30;;;10.90;45.40;10.40;99460.00;;;;5036170;28;20224;-75
2022/03/27 08:48:49;;;;;;;2.87;2.63;;;11.00;44.90;10.60;99441.00;;;;5036021;28;20216;-75
2022/03/27 08:51:29;;;;;;;4.03;2.87;;;11.10;44.30;10.60;99455.00;;;;5018563;28;20644;-75
2022/03/27 08:54:03;;;;;;;2.73;2.53;;;11.20;43.50;10.80;99456.00;;;;5036117;28;20297;-75
2022/03/27 08:56:34;;;;;;;1.67;1.57;;;11.30;43.40;11.00;99463.00;;;;5035819;28;20181;-75
2022/03/27 08:59:08;;;;;;;2.77;2.57;;;11.50;43.90;11.10;99453.00;;;;5018279;28;20232;-75
2022/03/27 09:01:38;;;;;;;14.10;2.27;;;11.70;43.10;11.30;99449.00;;;;5035798;28;20205;-75
2022/03/27 09:04:05;;;;;;;9.20;2.37;;;11.80;42.70;11.40;99455.00;;;;5018061;28;20336;-76
2022/03/27 09:06:33;;;;;;;2.17;2.07;;;11.90;42.40;11.60;99450.00;;;;5036106;28;20208;-76
2022/03/27 09:09:00;;;;;;;2.60;2.40;;;12.10;41.80;11.70;99446.00;;;;5036088;28;20212;-75
2022/03/27 09:11:31;;;;;;;1.67;1.57;;;12.20;41.20;11.80;99452.00;;;;5003083;28;20204;-75
2022/03/27 09:14:03;;;;;;;3.40;3.10;;;12.20;40.70;11.90;99450.00;;;;5035897;28;20189;-75
2022/03/27 09:16:30;;;;;;;4.77;2.80;;;12.50;40.80;11.90;99457.00;;;;5035631;28;20647;-75
2022/03/27 09:19:00;;;;;;;2.00;1.90;;;12.50;40.60;12.00;99459.00;;;;5035754;28;20197;-75
2022/03/27 09:21:28;;;;;;;1.73;1.50;;;12.60;40.50;12.10;99459.00;;;;5035779;28;20203;-76
2022/03/27 09:23:59;;;;;;;5.00;2.23;;;12.70;40.10;12.20;99465.00;;;;5035678;28;20237;-76
2022/03/27 09:26:27;;;;;;;2.57;2.37;;;12.80;40.20;12.30;99456.00;;;;5035560;28;20679;-75
2022/03/27 09:29:05;;;;;;;4.07;2.03;;;12.90;39.50;12.40;99448.00;;;;5035514;28;20200;-75
2022/03/27 09:31:34;;;;;;;2.60;2.40;;;13.00;39.00;12.60;99465.00;;;;5018355;28;20204;-75
2022/03/27 09:34:03;;;;;;;2.87;2.67;;;13.10;38.70;12.70;99455.00;;;;5018066;28;20620;-75
2022/03/27 09:36:33;;;;;;;7.93;2.77;;;13.20;39.40;12.80;99463.00;;;;5035355;28;20196;-76
2022/03/27 09:39:11;;;;;;;2.50;2.30;;;13.40;38.40;12.80;99453.00;;;;5035249;28;20197;-75
2022/03/27 09:41:45;;;;;;;9.63;2.20;;;13.40;38.20;12.80;99441.00;;;;5017788;28;20581;-76
2022/03/27 09:44:17;;;;;;;7.67;2.43;;;13.40;37.80;12.90;99431.00;;;;5035125;28;20281;-76
2022/03/27 09:46:57;;;;;;;4.27;3.70;;;13.50;38.00;13.20;99449.00;;;;5035267;28;20200;-76
2022/03/27 09:49:42;;;;;;;2.70;2.50;;;13.70;37.90;13.30;99427.00;;;;5017894;28;20211;-76
2022/03/27 09:52:12;;;;;;;13.57;2.50;;;13.90;37.40;13.40;99445.00;;;;5035055;28;20204;-75
2022/03/27 09:54:51;;;;;;;2.33;2.23;;;14.00;37.80;13.40;99449.00;;;;5017861;28;20221;-76
2022/03/27 09:57:25;;;;;;;7.37;3.07;;;14.00;37.00;13.60;99445.00;;;;5017811;28;20196;-76
2022/03/27 09:59:54;;;;;;;4.13;3.27;;;14.10;37.00;13.80;99443.00;;;;5034933;28;20221;-76
2022/03/27 10:02:27;;;;;;;2.73;2.53;;;14.30;36.80;14.00;99444.00;;;;5034961;28;20266;-75
2022/03/27 10:05:04;;;;;;;1.40;1.30;;;14.50;37.10;14.10;99441.00;;;;5035079;28;20232;-76
2022/03/27 10:07:40;;;;;;;2.20;1.93;;;14.60;36.50;14.30;99441.00;;;;5034874;28;20706;-75
2022/03/27 10:10:10;;;;;;;3.17;2.07;;;14.80;35.90;14.30;99424.00;;;;5035076;28;20225;-76
2022/03/27 10:12:38;;;;;;;5.63;2.97;;;14.90;36.00;14.40;99432.00;;;;5034665;28;20212;-76
2022/03/27 10:15:09;;;;;;;2.83;2.47;;;15.00;36.00;14.70;99356.00;;;;5034690;28;20300;-75
2022/03/27 10:17:42;;;;;;;1.83;1.73;;;15.20;35.80;15.00;99432.00;;;;5017607;28;20263;-76
2022/03/27 10:20:13;;;;;;;2.73;2.60;;;15.40;35.60;15.00;99430.00;;;;5034629;28;20355;-75
2022/03/27 10:22:45;;;;;;;8.60;2.43;;;15.50;35.30;15.20;99429.00;;;;5034766;28;20197;-75
2022/03/27 10:25:16;;;;;;;3.13;2.87;;;15.70;34.70;15.40;99427.00;;;;5017191;28;20240;-75
2022/03/27 10:27:44;;;;;;;2.90;2.20;;;15.80;34.30;15.60;99428.00;;;;5034676;28;20205;-75
2022/03/27 10:30:14;;;;;;;2.50;2.30;;;16.10;41.30;15.60;99423.00;;;;5017482;28;20613;-76
2022/03/27 10:32:42;;;;;;;2.63;2.43;;;16.10;43.10;15.90;99421.00;;;;5034873;28;20196;-76
2022/03/27 10:35:38;;;;;;;1.87;1.77;;;16.30;32.10;16.10;99394.00;;;;5018874;28;20208;-75
2022/03/27 10:38:38;;;;;;;1.73;1.63;;;16.50;32.40;16.10;99405.00;;;;5032930;28;20228;-76
2022/03/27 10:41:14;;;;;;;4.27;3.00;;;16.60;32.30;16.10;99401.00;;;;5018496;28;20302;-73
2022/03/27 10:43:50;;;;;;;3.40;3.10;;;16.60;31.80;16.40;99395.00;;;;5044176;28;20203;-74
2022/03/27 10:46:20;;;;;;;1.87;1.77;;;16.80;32.00;16.60;99396.00;;;;5044975;28;20250;-76
2022/03/27 10:48:50;;;;;;;2.10;1.97;;;17.00;31.80;16.60;99399.00;;;;5036373;28;20540;-75
2022/03/27 10:51:42;;;;;;;2.53;2.33;;;17.20;31.80;16.90;99393.00;;;;5017517;28;20225;-74
2022/03/27 10:54:15;;;;;;;5.07;2.87;;;17.40;30.30;17.10;99390.00;;;;5012947;28;20233;-75
2022/03/27 10:56:45;;;;;;;8.00;1.83;;;17.50;30.20;17.40;99383.00;;;;5034208;28;20239;-76
2022/03/27 10:59:16;;;;;;;2.70;1.90;;;17.70;30.00;17.70;99393.00;;;;5034226;28;20208;-75
2022/03/27 11:01:46;;;;;;;2.30;2.20;;;18.00;29.60;17.70;99394.00;;;;5033833;28;20286;-75
2022/03/27 11:04:16;;;;;;;2.60;2.37;;;18.20;28.10;17.80;99385.00;;;;5033841;28;20220;-75
2022/03/27 11:06:44;;;;;;;2.57;1.90;;;18.20;28.70;18.00;99344.00;;;;5033707;28;20228;-75
2022/03/27 11:09:30;;;;;;;1.33;1.30;;;18.40;27.50;18.20;99374.00;;;;5033657;28;20212;-75
2022/03/27 11:11:57;;;;;;;2.53;2.33;;;18.50;27.30;18.40;99353.00;;;;5033722;28;20299;-75
2022/03/27 11:15:00;;;;;;;4.57;3.60;;;18.70;27.60;18.70;99378.00;;;;5034403;28;20258;-75
2022/03/27 11:17:52;;;;;;;2.40;2.20;;;19.00;27.70;18.80;99374.00;;;;5035399;28;20663;-75
2022/03/27 11:20:47;;;;;;;2.20;2.10;;;19.20;27.50;19.20;99363.00;;;;5035058;28;20189;-75
2022/03/27 11:23:41;;;;;;;1.13;1.13;;;19.50;26.90;19.60;99358.00;;;;5014865;28;20219;-76